Time;durP1;ratioP1;P1;durP2;ratioP2;P2;SDS_P1;SDS_P2;PMS_P1;PMS_P2;Temp;Humidity;BMP_temperature;BMP_pressure;BME280_temperature;BME280_humidity;BME280_pressure;Samples;Min_cycle;Max_cycle;Signal;HPM_P1;HPM_P2
2023/04/24 00:02:00;;;;;;;9.40;7.70;;;;;;;10.66;58.13;99670.52;104004;276;38485;-74
2023/04/24 00:04:35;;;;;;;10.70;8.50;;;;;;;10.63;58.13;99673.27;104014;276;38414;-78
2023/04/24 00:07:09;;;;;;;10.50;8.50;;;;;;;10.59;58.18;99670.15;103800;276;38835;-75
2023/04/24 00:09:43;;;;;;;9.90;8.60;;;;;;;10.54;58.37;99667.09;104004;276;38705;-76
2023/04/24 00:12:17;;;;;;;10.70;8.30;;;;;;;10.50;58.46;99667.43;103982;276;38252;-73
2023/04/24 00:14:51;;;;;;;10.10;8.10;;;;;;;10.50;58.57;99666.95;104004;276;38261;-73
2023/04/24 00:17:27;;;;;;;10.80;8.70;;;;;;;10.47;58.93;99666.37;103974;276;38607;-74
2023/04/24 00:20:04;;;;;;;12.90;8.10;;;;;;;10.43;59.41;99665.02;104000;276;39583;-77
2023/04/24 00:22:38;;;;;;;9.50;7.70;;;;;;;10.39;59.38;99666.61;104023;276;38508;-73
2023/04/24 00:25:14;;;;;;;10.20;7.90;;;;;;;10.36;59.64;99664.82;103853;276;38520;-74
2023/04/24 00:27:48;;;;;;;10.80;8.30;;;;;;;10.30;59.86;99657.42;103772;276;38795;-74
2023/04/24 00:30:22;;;;;;;9.80;8.00;;;;;;;10.26;60.31;99656.41;104010;276;39635;-75
2023/04/24 00:32:56;;;;;;;12.20;8.60;;;;;;;10.21;60.46;99651.59;104000;276;40298;-75
2023/04/24 00:35:30;;;;;;;12.00;8.70;;;;;;;10.13;60.87;99649.66;103970;276;38218;-76
2023/04/24 00:38:04;;;;;;;10.60;8.60;;;;;;;10.03;61.35;99648.20;103959;276;38576;-76
2023/04/24 00:40:38;;;;;;;10.10;7.50;;;;;;;9.94;61.50;99650.72;104003;276;38377;-78
2023/04/24 00:43:12;;;;;;;11.10;7.80;;;;;;;9.87;61.72;99647.06;104009;276;39960;-74
2023/04/24 00:45:46;;;;;;;12.50;8.60;;;;;;;9.81;62.13;99646.98;103817;278;38722;-73
2023/04/24 00:48:20;;;;;;;10.50;7.90;;;;;;;9.75;62.32;99642.73;103799;276;39505;-74
2023/04/24 00:50:54;;;;;;;11.20;8.30;;;;;;;9.71;62.64;99647.44;103999;276;38243;-73
2023/04/24 00:53:28;;;;;;;12.60;8.40;;;;;;;9.67;62.89;99649.20;104010;277;39457;-73
2023/04/24 00:56:02;;;;;;;10.50;8.20;;;;;;;9.65;63.25;99654.02;103990;276;38274;-74
2023/04/24 00:58:36;;;;;;;10.70;8.20;;;;;;;9.60;63.47;99652.67;104013;276;38960;-74
2023/04/24 01:01:11;;;;;;;12.30;8.30;;;;;;;9.53;63.70;99652.83;104044;276;38259;-73
2023/04/24 01:03:45;;;;;;;10.10;8.00;;;;;;;9.49;63.92;99652.99;104032;276;38324;-75
2023/04/24 01:06:19;;;;;;;9.10;8.20;;;;;;;9.49;64.10;99648.44;104020;277;39688;-73
2023/04/24 01:08:53;;;;;;;11.30;8.70;;;;;;;9.52;64.10;99650.06;104037;276;39712;-74
2023/04/24 01:11:27;;;;;;;11.10;8.90;;;;;;;9.53;64.19;99651.24;104015;276;38832;-74
2023/04/24 01:14:01;;;;;;;11.90;9.60;;;;;;;9.54;64.15;99648.23;103808;278;38993;-74
2023/04/24 01:16:35;;;;;;;10.70;9.30;;;;;;;9.54;64.20;99644.24;104055;276;38240;-74
2023/04/24 01:19:10;;;;;;;13.00;9.70;;;;;;;9.51;64.29;99643.52;104038;276;38491;-76
2023/04/24 01:21:47;;;;;;;11.80;8.10;;;;;;;9.45;64.36;99638.38;103991;276;38470;-77
2023/04/24 01:24:21;;;;;;;12.00;8.60;;;;;;;9.41;64.43;99631.95;104016;276;38336;-73
2023/04/24 01:26:55;;;;;;;9.70;8.60;;;;;;;9.41;64.40;99631.93;103999;276;39395;-74
2023/04/24 01:29:29;;;;;;;14.50;9.40;;;;;;;9.43;64.37;99632.02;103937;277;175339;-76
2023/04/24 01:32:04;;;;;;;11.20;8.90;;;;;;;9.44;64.41;99632.17;103991;277;39403;-74
2023/04/24 01:34:37;;;;;;;10.50;9.00;;;;;;;9.41;64.46;99628.45;103611;277;565738;-75
2023/04/24 01:37:12;;;;;;;12.10;8.90;;;;;;;9.38;64.63;99629.84;103754;277;38520;-75
2023/04/24 01:39:46;;;;;;;13.70;9.20;;;;;;;9.32;65.01;99626.44;103659;278;188507;-76
2023/04/24 01:42:22;;;;;;;16.20;9.40;;;;;;;9.27;65.48;99620.71;104019;276;38271;-75
2023/04/24 01:44:56;;;;;;;17.00;8.90;;;;;;;9.27;65.51;99618.82;104043;276;39592;-75
2023/04/24 01:47:30;;;;;;;10.50;8.40;;;;;;;9.32;65.26;99614.79;104015;276;40257;-76
2023/04/24 01:50:05;;;;;;;12.60;9.10;;;;;;;9.39;65.08;99611.16;104010;276;38272;-77
2023/04/24 01:52:39;;;;;;;10.30;9.00;;;;;;;9.46;64.79;99618.67;104010;276;38420;-76
2023/04/24 01:55:13;;;;;;;13.00;9.60;;;;;;;9.49;64.69;99620.23;103990;276;40060;-75
2023/04/24 01:57:47;;;;;;;11.70;9.30;;;;;;;9.51;64.88;99625.05;103975;265;38425;-74
2023/04/24 02:00:21;;;;;;;11.00;9.20;;;;;;;9.51;64.93;99626.62;104020;276;38392;-76
2023/04/24 02:02:56;;;;;;;11.30;9.00;;;;;;;9.47;64.86;99624.00;104028;276;38705;-76
2023/04/24 02:05:31;;;;;;;10.60;8.70;;;;;;;9.43;64.75;99618.80;104026;276;38245;-74
2023/04/24 02:08:05;;;;;;;13.60;9.70;;;;;;;9.42;64.93;99619.02;104025;276;38277;-75
2023/04/24 02:10:39;;;;;;;11.40;8.60;;;;;;;9.40;64.80;99619.11;104060;276;38616;-75
2023/04/24 02:13:13;;;;;;;13.80;10.30;;;;;;;9.38;64.70;99621.61;104015;276;38264;-74
2023/04/24 02:15:47;;;;;;;11.00;9.50;;;;;;;9.34;64.89;99619.73;104050;276;38396;-76
2023/04/24 02:18:22;;;;;;;12.60;9.70;;;;;;;9.24;65.10;99620.14;104005;276;38640;-76
2023/04/24 02:20:56;;;;;;;14.30;9.80;;;;;;;9.19;65.23;99617.61;104060;276;39409;-74
2023/04/24 02:23:30;;;;;;;11.80;9.40;;;;;;;9.12;65.44;99616.71;103962;276;39134;-75
2023/04/24 02:26:04;;;;;;;13.20;9.10;;;;;;;9.03;65.38;99612.56;103984;276;39538;-73
2023/04/24 02:28:38;;;;;;;12.00;9.10;;;;;;;8.96;65.54;99610.08;104018;276;38741;-75
2023/04/24 02:31:13;;;;;;;10.90;9.30;;;;;;;8.92;65.63;99602.97;103960;276;39473;-74
2023/04/24 02:33:47;;;;;;;10.70;9.50;;;;;;;8.87;65.85;99595.88;103768;276;38480;-74
2023/04/24 02:36:21;;;;;;;10.40;9.10;;;;;;;8.82;65.94;99596.63;104021;276;38387;-78
2023/04/24 02:38:55;;;;;;;11.20;9.60;;;;;;;8.73;66.26;99595.60;103839;266;39163;-75
2023/04/24 02:41:32;;;;;;;13.90;10.00;;;;;;;8.63;66.57;99591.33;104045;276;38847;-76
2023/04/24 02:44:06;;;;;;;14.10;9.40;;;;;;;8.59;66.75;99589.96;104006;276;38590;-75
2023/04/24 02:46:41;;;;;;;10.00;8.70;;;;;;;8.58;66.84;99590.36;104054;276;38275;-76
2023/04/24 02:49:17;;;;;;;10.90;8.90;;;;;;;8.57;67.35;99588.65;103995;276;38262;-76
2023/04/24 02:51:51;;;;;;;10.30;9.10;;;;;;;8.55;67.62;99584.89;104039;276;39694;-75
2023/04/24 02:54:24;;;;;;;12.40;9.80;;;;;;;8.49;67.77;99585.84;104039;276;38274;-74
2023/04/24 02:56:58;;;;;;;11.00;9.20;;;;;;;8.43;68.25;99583.50;104030;276;38436;-76
2023/04/24 02:59:33;;;;;;;12.60;8.70;;;;;;;8.39;68.47;99583.31;103812;276;38380;-75
2023/04/24 03:02:08;;;;;;;11.90;8.10;;;;;;;8.38;68.97;99581.95;104036;276;38803;-74
2023/04/24 03:04:45;;;;;;;13.40;9.40;;;;;;;8.38;69.07;99578.98;104036;276;39415;-74
2023/04/24 03:07:20;;;;;;;12.00;9.30;;;;;;;8.39;69.47;99581.57;103983;277;38941;-75
2023/04/24 03:09:54;;;;;;;14.90;9.90;;;;;;;8.40;69.54;99583.98;104006;276;38227;-76
2023/04/24 03:12:28;;;;;;;13.70;9.30;;;;;;;8.45;69.43;99578.55;104002;276;38279;-75
2023/04/24 03:15:02;;;;;;;12.20;8.90;;;;;;;8.53;69.19;99579.93;104053;276;38697;-73
2023/04/24 03:17:36;;;;;;;13.80;9.70;;;;;;;8.60;68.95;99579.11;103891;276;175029;-73
2023/04/24 03:20:13;;;;;;;12.50;9.40;;;;;;;8.70;68.82;99574.89;104039;276;38466;-74
2023/04/24 03:22:47;;;;;;;13.40;10.10;;;;;;;8.80;68.54;99574.61;104041;276;38685;-74
2023/04/24 03:25:21;;;;;;;13.40;9.50;;;;;;;8.88;68.29;99576.52;104002;276;38367;-75
2023/04/24 03:27:56;;;;;;;13.00;9.60;;;;;;;8.96;68.23;99574.63;103997;276;38219;-75
2023/04/24 03:30:30;;;;;;;12.40;9.50;;;;;;;9.04;67.91;99576.34;104012;276;38409;-73
2023/04/24 03:33:04;;;;;;;13.50;9.80;;;;;;;9.12;67.57;99575.98;104051;276;38227;-73
2023/04/24 03:35:39;;;;;;;12.50;10.00;;;;;;;9.22;67.21;99578.69;104073;276;39437;-73
2023/04/24 03:38:13;;;;;;;12.80;9.90;;;;;;;9.32;67.07;99578.55;104001;276;38241;-76
2023/04/24 03:40:47;;;;;;;10.80;9.30;;;;;;;9.45;66.82;99578.34;104023;276;38269;-75
2023/04/24 03:43:21;;;;;;;12.20;9.40;;;;;;;9.56;66.72;99578.50;103995;276;38506;-75
2023/04/24 03:45:55;;;;;;;11.30;9.20;;;;;;;9.69;66.52;99578.95;104028;276;38403;-77
2023/04/24 03:48:29;;;;;;;11.50;9.60;;;;;;;9.81;66.32;99583.27;104058;276;38249;-76
2023/04/24 03:51:03;;;;;;;14.90;11.20;;;;;;;9.91;65.98;99584.36;104064;276;38515;-76
2023/04/24 03:53:37;;;;;;;17.90;11.80;;;;;;;10.01;65.44;99581.94;104033;276;39688;-75
2023/04/24 03:56:11;;;;;;;15.00;12.10;;;;;;;10.10;65.37;99574.70;104029;276;38791;-73
2023/04/24 03:58:45;;;;;;;19.90;14.70;;;;;;;10.18;64.93;99579.20;104026;276;38278;-74
2023/04/24 04:01:20;;;;;;;17.00;14.20;;;;;;;10.28;64.43;99583.77;104032;276;38833;-74
2023/04/24 04:03:54;;;;;;;22.30;15.20;;;;;;;10.41;64.02;99585.61;103789;274;39414;-75
2023/04/24 04:06:28;;;;;;;20.30;15.80;;;;;;;10.57;63.53;99584.98;104023;276;38228;-75
2023/04/24 04:09:02;;;;;;;22.20;15.60;;;;;;;10.76;62.96;99580.48;104004;276;40142;-73
2023/04/24 04:11:37;;;;;;;21.10;15.30;;;;;;;10.94;62.35;99580.80;104027;276;38486;-74
2023/04/24 04:14:11;;;;;;;22.40;15.40;;;;;;;11.16;61.84;99573.33;104023;276;39571;-76
2023/04/24 04:16:46;;;;;;;20.70;15.60;;;;;;;11.38;61.33;99574.45;104020;276;38554;-73
2023/04/24 04:19:20;;;;;;;18.30;13.70;;;;;;;11.54;60.81;99573.94;104029;276;38359;-75
2023/04/24 04:21:56;;;;;;;19.20;13.30;;;;;;;11.74;60.15;99573.70;103808;277;39320;-74
2023/04/24 04:24:32;;;;;;;18.30;12.90;;;;;;;11.95;60.01;99574.65;103855;270;38273;-76
2023/04/24 04:27:06;;;;;;;21.40;13.80;;;;;;;12.29;59.42;99573.90;103842;266;39924;-77
2023/04/24 04:29:40;;;;;;;16.00;11.10;;;;;;;12.63;59.17;99573.66;104013;276;39473;-75
2023/04/24 04:32:15;;;;;;;15.80;11.40;;;;;;;12.89;57.83;99572.33;103813;278;39387;-73
2023/04/24 04:38:14;;;;;;;14.00;10.00;;;;;;;13.22;56.85;99571.68;104152;276;38405;-75
2023/04/24 04:40:53;;;;;;;11.50;9.60;;;;;;;13.73;56.64;99574.13;104057;276;38245;-76
2023/04/24 04:43:32;;;;;;;14.80;9.70;;;;;;;14.62;55.41;99576.93;103803;276;39334;-74
2023/04/24 04:46:10;;;;;;;13.10;9.30;;;;;;;15.37;53.52;99568.39;104029;276;39644;-73
2023/04/24 04:48:45;;;;;;;13.60;9.70;;;;;;;16.16;52.22;99572.18;104034;276;38230;-76
2023/04/24 04:51:20;;;;;;;12.30;8.80;;;;;;;16.98;50.63;99567.77;103834;276;38710;-77
2023/04/24 04:53:54;;;;;;;15.30;9.20;;;;;;;17.70;47.19;99565.66;103818;276;38437;-76
2023/04/24 04:56:29;;;;;;;14.90;8.70;;;;;;;18.31;46.86;99559.99;104028;276;38235;-80
2023/04/24 04:59:06;;;;;;;10.20;8.60;;;;;;;19.03;44.91;99554.28;104090;276;38778;-76
2023/04/24 05:01:41;;;;;;;9.50;8.50;;;;;;;19.58;43.00;99552.86;104082;276;39412;-73
2023/04/24 05:04:20;;;;;;;9.90;8.20;;;;;;;19.92;42.08;99553.56;104065;276;38220;-74
2023/04/24 05:07:43;;;;;;;10.20;8.20;;;;;;;20.18;41.32;99550.11;104097;276;38924;-76
2023/04/24 05:10:44;;;;;;;10.00;7.70;;;;;;;20.49;40.08;99555.80;103756;279;38692;-77
2023/04/24 05:13:22;;;;;;;9.50;8.30;;;;;;;20.72;39.54;99555.48;103697;277;39513;-75
2023/04/24 05:16:02;;;;;;;9.60;8.10;;;;;;;20.96;38.86;99551.26;104013;276;38980;-75
2023/04/24 05:18:51;;;;;;;9.50;8.00;;;;;;;21.30;37.91;99551.05;103821;276;39358;-75
2023/04/24 05:21:26;;;;;;;8.80;7.90;;;;;;;21.54;37.25;99546.27;103840;276;38372;-75
2023/04/24 05:24:02;;;;;;;11.70;8.30;;;;;;;21.75;36.89;99550.05;104055;276;39015;-77
2023/04/24 05:26:36;;;;;;;18.60;8.50;;;;;;;21.64;36.43;99547.76;104017;276;38261;-80
2023/04/24 05:29:11;;;;;;;10.60;7.90;;;;;;;21.27;36.56;99549.71;104016;276;38334;-74
2023/04/24 05:31:45;;;;;;;11.70;7.50;;;;;;;20.96;36.44;99548.44;104016;276;38851;-76
2023/04/24 05:34:19;;;;;;;11.20;7.60;;;;;;;20.99;36.78;99549.48;104055;276;38238;-75
2023/04/24 05:36:54;;;;;;;9.40;7.80;;;;;;;20.83;37.08;99544.14;104015;276;38729;-75
2023/04/24 05:39:28;;;;;;;8.70;7.50;;;;;;;20.63;37.07;99545.83;104061;276;39338;-75
2023/04/24 05:42:04;;;;;;;9.90;8.00;;;;;;;20.37;37.19;99543.09;103801;276;38235;-75
2023/04/24 05:44:38;;;;;;;11.70;7.80;;;;;;;20.26;37.74;99540.83;104080;276;39434;-77
2023/04/24 05:47:12;;;;;;;10.70;8.40;;;;;;;20.23;37.32;99539.96;104010;276;39380;-76
2023/04/24 05:49:46;;;;;;;11.40;8.20;;;;;;;19.95;37.58;99542.25;104047;276;39236;-74
2023/04/24 05:52:20;;;;;;;10.90;7.70;;;;;;;19.77;38.24;99541.10;104040;276;38622;-76
2023/04/24 05:54:55;;;;;;;10.90;7.90;;;;;;;19.61;38.29;99538.22;104051;276;38267;-74
2023/04/24 05:57:30;;;;;;;13.30;8.00;;;;;;;19.47;38.95;99540.33;104023;276;38989;-76
2023/04/24 06:00:04;;;;;;;11.00;8.60;;;;;;;19.42;38.80;99540.60;104023;276;38259;-78
2023/04/24 06:02:39;;;;;;;10.50;7.70;;;;;;;19.44;39.40;99536.05;103999;276;38232;-77
2023/04/24 06:05:13;;;;;;;11.20;8.70;;;;;;;19.57;39.14;99536.11;103977;276;40011;-75
2023/04/24 06:07:48;;;;;;;12.40;8.00;;;;;;;19.77;39.20;99538.81;104049;276;38480;-76
2023/04/24 06:10:22;;;;;;;12.80;8.10;;;;;;;19.90;38.77;99539.59;103971;276;38479;-75
2023/04/24 06:13:00;;;;;;;11.00;8.10;;;;;;;20.32;39.85;99535.23;104038;276;38271;-77
2023/04/24 06:15:34;;;;;;;12.40;8.00;;;;;;;21.48;39.14;99533.33;103998;276;38814;-78
2023/04/24 06:18:09;;;;;;;10.90;7.70;;;;;;;22.80;37.89;99529.81;103987;276;40535;-76
2023/04/24 06:20:44;;;;;;;11.10;7.40;;;;;;;23.98;34.87;99525.29;103954;277;38528;-75
2023/04/24 06:23:18;;;;;;;13.90;8.10;;;;;;;25.00;33.23;99521.71;104035;276;38433;-75
2023/04/24 06:25:52;;;;;;;12.60;6.90;;;;;;;26.03;31.83;99519.27;104063;276;38616;-75
2023/04/24 06:28:26;;;;;;;12.80;7.30;;;;;;;26.80;30.42;99517.41;104036;276;38481;-76
2023/04/24 06:31:01;;;;;;;10.30;6.60;;;;;;;27.50;29.30;99513.76;104027;276;38338;-77
2023/04/24 06:33:36;;;;;;;10.30;6.60;;;;;;;28.21;28.31;99508.82;103873;277;39414;-79
2023/04/24 06:36:11;;;;;;;11.20;6.70;;;;;;;28.92;27.20;99506.34;104027;276;38269;-75
2023/04/24 06:38:47;;;;;;;9.50;6.50;;;;;;;28.81;26.33;99508.21;104040;276;38409;-76
2023/04/24 06:41:21;;;;;;;9.10;6.70;;;;;;;28.60;26.72;99506.98;104049;276;38463;-75
2023/04/24 06:43:55;;;;;;;10.40;6.90;;;;;;;28.84;26.40;99501.44;104088;276;40045;-75
2023/04/24 06:46:29;;;;;;;11.50;6.90;;;;;;;29.17;25.69;99500.32;104081;276;39426;-74
2023/04/24 06:49:03;;;;;;;8.00;6.40;;;;;;;29.36;25.16;99500.08;104089;276;38217;-75
2023/04/24 06:51:39;;;;;;;9.90;6.30;;;;;;;29.63;25.09;99499.70;104034;276;39418;-76
2023/04/24 06:54:13;;;;;;;11.80;6.10;;;;;;;29.94;24.69;99497.62;103822;278;38603;-75
2023/04/24 06:56:47;;;;;;;13.80;6.40;;;;;;;29.89;24.06;99497.36;104035;275;38221;-75
2023/04/24 06:59:22;;;;;;;10.00;6.00;;;;;;;29.62;24.72;99494.64;104065;276;39408;-75
2023/04/24 07:01:56;;;;;;;10.20;5.80;;;;;;;29.60;25.06;99494.60;104052;276;39426;-75
2023/04/24 07:04:30;;;;;;;10.40;6.10;;;;;;;29.58;24.22;99493.63;104048;276;39890;-74
2023/04/24 07:07:06;;;;;;;6.90;5.70;;;;;;;29.49;24.55;99494.11;104066;276;38541;-75
2023/04/24 07:09:45;;;;;;;11.60;6.10;;;;;;;29.56;24.70;99491.94;104038;276;38247;-75
2023/04/24 07:12:20;;;;;;;10.20;5.60;;;;;;;29.73;24.97;99495.13;104025;276;38241;-74
2023/04/24 07:14:56;;;;;;;8.20;6.00;;;;;;;29.96;24.16;99492.27;104053;276;38511;-78
2023/04/24 07:17:30;;;;;;;9.80;5.80;;;;;;;30.24;23.71;99490.66;103803;276;41086;-77
2023/04/24 07:20:07;;;;;;;9.60;5.80;;;;;;;30.89;23.77;99489.75;104038;276;38268;-77
2023/04/24 07:22:41;;;;;;;10.20;5.60;;;;;;;31.68;22.20;99487.60;103848;276;38633;-77
2023/04/24 07:25:15;;;;;;;11.80;5.60;;;;;;;32.00;21.59;99486.02;104020;276;38720;-76
2023/04/24 07:27:50;;;;;;;13.70;5.60;;;;;;;32.64;21.51;99487.42;103992;276;39035;-77
2023/04/24 07:30:24;;;;;;;7.70;5.00;;;;;;;32.85;20.50;99487.05;104069;276;38516;-77
2023/04/24 07:33:00;;;;;;;9.40;5.20;;;;;;;32.48;19.94;99487.89;104032;276;39817;-77
2023/04/24 07:35:34;;;;;;;8.80;5.30;;;;;;;31.95;20.72;99487.61;103934;277;39977;-75
2023/04/24 07:38:08;;;;;;;8.10;5.00;;;;;;;31.46;21.85;99484.70;104030;276;39665;-75
2023/04/24 07:40:43;;;;;;;11.50;5.70;;;;;;;30.83;21.69;99485.14;104011;276;38582;-77
2023/04/24 07:43:17;;;;;;;7.20;5.20;;;;;;;30.24;22.59;99489.86;104085;276;39447;-79
2023/04/24 07:45:50;;;;;;;11.90;6.00;;;;;;;29.66;22.79;99489.41;104022;276;39652;-75
2023/04/24 07:48:26;;;;;;;9.90;6.00;;;;;;;29.29;23.57;99489.25;104017;276;39043;-77
2023/04/24 07:51:00;;;;;;;10.20;6.00;;;;;;;29.66;23.86;99487.52;103992;276;39410;-76
2023/04/24 07:53:34;;;;;;;7.60;5.80;;;;;;;30.15;23.28;99488.82;104015;276;39670;-76
2023/04/24 07:56:08;;;;;;;9.30;5.50;;;;;;;30.48;22.67;99487.39;103813;276;39395;-75
2023/04/24 07:58:42;;;;;;;9.60;6.00;;;;;;;30.80;22.77;99483.58;104004;276;39641;-77
2023/04/24 08:01:16;;;;;;;10.90;5.80;;;;;;;31.30;22.41;99480.63;103981;276;40383;-78
2023/04/24 08:03:50;;;;;;;6.90;6.00;;;;;;;31.53;21.90;99481.23;104081;276;39431;-78
2023/04/24 08:06:29;;;;;;;7.90;5.70;;;;;;;32.01;22.47;99480.54;103738;276;38234;-78
2023/04/24 08:09:02;;;;;;;;;;;;;;;32.80;21.89;99476.02;104067;276;38231;-80
2023/04/24 08:11:36;;;;;;;11.90;6.20;;;;;;;33.44;21.61;99476.45;104105;276;38274;-79
2023/04/24 08:14:12;;;;;;;10.60;5.50;;;;;;;33.99;20.70;99477.30;104105;276;39769;-79
2023/04/24 08:16:46;;;;;;;10.10;5.80;;;;;;;34.42;20.55;99480.53;104088;276;38388;-77
2023/04/24 08:19:20;;;;;;;9.50;6.00;;;;;;;35.09;20.44;99477.23;103955;275;173938;-74
2023/04/24 08:21:53;;;;;;;9.30;6.40;;;;;;;35.57;19.73;99479.89;103992;276;39548;-76
2023/04/24 08:24:27;;;;;;;9.50;6.40;;;;;;;35.56;18.58;99476.14;104011;276;39983;-74
2023/04/24 08:27:02;;;;;;;8.00;5.60;;;;;;;35.23;18.46;99481.34;104017;276;39415;-74
2023/04/24 08:29:36;;;;;;;8.10;5.50;;;;;;;34.71;19.03;99485.68;103917;276;39230;-74
2023/04/24 08:32:09;;;;;;;10.30;5.30;;;;;;;34.54;19.12;99484.80;103998;276;38880;-74
2023/04/24 08:34:43;;;;;;;7.10;5.30;;;;;;;34.57;19.48;99480.33;104012;276;38275;-74
2023/04/24 08:37:17;;;;;;;9.70;5.50;;;;;;;34.68;19.47;99482.14;104005;276;38865;-75
2023/04/24 08:39:51;;;;;;;14.40;6.00;;;;;;;34.81;18.74;99478.67;103999;276;38230;-75
2023/04/24 08:42:27;;;;;;;9.40;6.20;;;;;;;35.00;19.24;99484.28;104018;276;38259;-76
2023/04/24 08:45:02;;;;;;;11.50;6.90;;;;;;;34.90;18.69;99483.52;104010;276;39922;-76
2023/04/24 08:47:36;;;;;;;10.20;6.80;;;;;;;34.69;19.11;99483.91;104136;276;39903;-79
2023/04/24 08:50:12;;;;;;;12.40;7.60;;;;;;;34.16;18.51;99488.58;104595;276;38518;-78
2023/04/24 08:52:46;;;;;;;11.90;6.70;;;;;;;33.20;19.68;99481.12;104403;276;38239;-80
2023/04/24 08:55:21;;;;;;;11.10;6.50;;;;;;;32.42;20.08;99483.15;104435;276;38257;-79
2023/04/24 08:57:56;;;;;;;10.10;6.40;;;;;;;31.60;20.83;99484.14;104263;276;38460;-81
2023/04/24 09:00:30;;;;;;;8.40;7.00;;;;;;;31.12;21.66;99489.36;104189;276;38489;-81
2023/04/24 09:03:05;;;;;;;13.40;7.10;;;;;;;31.14;22.22;99488.28;104141;276;38340;-78
2023/04/24 09:05:40;;;;;;;13.00;6.80;;;;;;;31.72;21.80;99480.39;104067;276;39019;-79
2023/04/24 09:08:14;;;;;;;12.70;7.00;;;;;;;31.65;21.41;99482.04;104082;276;38466;-77
2023/04/24 09:10:49;;;;;;;14.10;6.20;;;;;;;31.08;21.92;99484.17;103932;278;40333;-78
2023/04/24 09:13:23;;;;;;;9.00;6.50;;;;;;;30.50;22.43;99487.88;103977;276;188723;-81
2023/04/24 09:16:00;;;;;;;10.60;6.60;;;;;;;29.87;22.74;99488.23;104189;276;38511;-80
2023/04/24 09:18:35;;;;;;;18.10;7.40;;;;;;;29.23;23.77;99486.13;104166;276;39397;-75
2023/04/24 09:21:11;;;;;;;10.30;6.30;;;;;;;28.71;23.96;99480.11;104020;276;38354;-75
2023/04/24 09:23:45;;;;;;;16.10;6.90;;;;;;;28.45;24.49;99476.48;103798;276;38486;-79
2023/04/24 09:26:20;;;;;;;11.80;6.40;;;;;;;28.28;25.20;99476.61;104020;276;38337;-75
2023/04/24 09:28:54;;;;;;;11.70;6.20;;;;;;;28.17;25.43;99472.24;104025;276;38758;-75
2023/04/24 09:31:29;;;;;;;15.20;6.80;;;;;;;27.98;25.52;99472.79;104033;276;38535;-75
2023/04/24 09:34:05;;;;;;;9.10;6.20;;;;;;;27.74;25.75;99467.98;104102;276;39399;-75
2023/04/24 09:36:41;;;;;;;9.20;6.50;;;;;;;27.50;25.87;99467.88;103664;276;38893;-77
2023/04/24 09:39:16;;;;;;;9.80;6.20;;;;;;;27.67;25.70;99461.23;103829;276;38275;-75
2023/04/24 09:41:52;;;;;;;11.90;5.80;;;;;;;27.73;25.33;99461.69;103986;276;39386;-77
2023/04/24 09:44:27;;;;;;;14.00;5.90;;;;;;;27.50;25.30;99456.79;104049;276;38272;-75
2023/04/24 09:47:02;;;;;;;10.10;5.50;;;;;;;27.29;25.49;99461.22;103990;276;39680;-76
2023/04/24 09:49:39;;;;;;;12.70;6.20;;;;;;;27.06;25.96;99459.46;104005;276;39577;-79
2023/04/24 09:52:13;;;;;;;8.40;5.20;;;;;;;27.18;26.43;99451.75;104008;276;38367;-76
2023/04/24 09:54:48;;;;;;;9.40;5.50;;;;;;;27.60;26.46;99449.13;103823;278;39690;-75
2023/04/24 09:57:23;;;;;;;10.60;5.70;;;;;;;27.98;26.25;99442.61;104023;276;38919;-78
2023/04/24 09:59:58;;;;;;;7.00;5.30;;;;;;;28.29;25.09;99443.54;104041;276;39610;-79
2023/04/24 10:02:32;;;;;;;8.80;5.40;;;;;;;28.45;24.94;99439.14;103859;276;41143;-76
2023/04/24 10:05:10;;;;;;;9.50;5.80;;;;;;;28.52;24.94;99435.33;104051;276;39218;-77
2023/04/24 10:07:44;;;;;;;9.20;5.00;;;;;;;28.56;25.04;99431.91;104077;276;39103;-77
2023/04/24 10:10:19;;;;;;;8.70;4.90;;;;;;;28.59;25.22;99426.23;103994;276;39164;-76
2023/04/24 10:12:52;;;;;;;6.90;4.40;;;;;;;28.56;24.03;99430.13;104011;276;38807;-76
2023/04/24 10:15:28;;;;;;;5.10;4.10;;;;;;;28.44;23.53;99426.71;104016;276;38412;-76
2023/04/24 10:18:03;;;;;;;5.60;3.90;;;;;;;28.39;24.25;99425.11;104015;276;39620;-77
2023/04/24 10:20:38;;;;;;;4.40;3.70;;;;;;;28.38;23.51;99422.69;103812;276;39482;-77
2023/04/24 10:23:13;;;;;;;6.60;3.70;;;;;;;28.38;22.95;99418.14;104018;276;39633;-77
2023/04/24 10:25:47;;;;;;;7.20;3.30;;;;;;;28.26;22.71;99422.20;104020;276;38254;-76
2023/04/24 10:28:22;;;;;;;7.10;4.00;;;;;;;28.12;22.32;99419.45;104033;276;38332;-76
2023/04/24 10:30:56;;;;;;;5.30;3.60;;;;;;;27.94;22.44;99417.14;104037;276;38273;-76
2023/04/24 10:33:32;;;;;;;5.60;3.80;;;;;;;27.75;23.08;99415.23;104036;276;38358;-79
2023/04/24 10:36:06;;;;;;;6.80;4.80;;;;;;;27.71;23.34;99415.93;103800;276;38784;-76
2023/04/24 10:38:41;;;;;;;7.00;4.20;;;;;;;27.69;23.75;99409.08;103868;278;38342;-76
2023/04/24 10:41:19;;;;;;;7.10;4.40;;;;;;;27.68;23.98;99405.56;104023;276;39383;-78
2023/04/24 10:44:06;;;;;;;7.40;4.40;;;;;;;27.48;23.63;99396.29;104030;276;39757;-77
2023/04/24 10:46:44;;;;;;;7.70;4.80;;;;;;;27.35;23.89;99400.15;104034;276;38671;-79
2023/04/24 10:49:18;;;;;;;7.20;4.80;;;;;;;27.34;23.77;99395.23;103922;276;174503;-77
2023/04/24 10:51:54;;;;;;;6.10;5.00;;;;;;;27.30;23.68;99394.48;104017;276;38764;-75
2023/04/24 10:54:30;;;;;;;8.70;5.20;;;;;;;27.25;24.55;99388.70;103921;276;174237;-78
2023/04/24 10:57:33;;;;;;;5.80;4.90;;;;;;;27.25;24.51;99383.70;103701;277;39462;-77
2023/04/24 11:00:20;;;;;;;8.10;5.20;;;;;;;27.23;24.99;99384.29;104003;276;39749;-75
2023/04/24 11:02:55;;;;;;;9.10;5.00;;;;;;;27.22;25.51;99375.89;103826;276;38263;-77
2023/04/24 11:05:58;;;;;;;7.80;5.60;;;;;;;27.17;25.60;99375.63;104038;276;38407;-75
2023/04/24 11:08:38;;;;;;;6.70;5.60;;;;;;;27.09;25.42;99378.01;104038;276;39795;-76
2023/04/24 11:11:15;;;;;;;9.30;5.60;;;;;;;26.91;25.02;99372.27;104018;276;38518;-77
2023/04/24 11:14:09;;;;;;;8.30;5.40;;;;;;;26.78;25.03;99376.33;103798;276;40458;-75
2023/04/24 11:16:54;;;;;;;7.60;5.10;;;;;;;26.74;25.24;99372.46;104043;276;39434;-75
2023/04/24 11:19:29;;;;;;;8.60;4.10;;;;;;;26.74;24.41;99367.94;104095;276;39297;-76
2023/04/24 11:22:06;;;;;;;6.20;4.20;;;;;;;26.68;23.30;99367.45;104015;276;38391;-74
2023/04/24 11:24:51;;;;;;;7.70;5.30;;;;;;;26.60;23.85;99370.27;104019;276;38309;-75
2023/04/24 11:27:30;;;;;;;6.00;5.20;;;;;;;26.59;24.77;99378.21;104015;276;39471;-76
2023/04/24 11:30:06;;;;;;;6.70;5.30;;;;;;;26.66;24.86;99368.45;104025;276;39411;-74
2023/04/24 11:32:42;;;;;;;9.40;6.00;;;;;;;26.62;24.93;99371.07;104015;276;38662;-75
2023/04/24 11:35:20;;;;;;;8.00;6.00;;;;;;;26.52;25.12;99370.12;103809;278;38919;-75
2023/04/24 11:37:56;;;;;;;8.20;5.70;;;;;;;26.39;25.25;99371.48;104082;276;38232;-75
2023/04/24 11:40:30;;;;;;;9.50;6.20;;;;;;;26.24;25.29;99367.20;104063;276;38930;-77
2023/04/24 11:43:05;;;;;;;6.50;5.80;;;;;;;26.07;25.24;99361.88;103841;278;38365;-75
2023/04/24 11:45:39;;;;;;;7.00;5.70;;;;;;;25.87;25.39;99361.13;104043;276;40170;-80
2023/04/24 11:48:13;;;;;;;6.20;5.10;;;;;;;25.84;26.20;99360.92;104050;276;39817;-74
2023/04/24 11:50:51;;;;;;;6.10;4.50;;;;;;;25.87;25.51;99364.32;104025;276;38301;-76
2023/04/24 11:53:25;;;;;;;6.40;4.90;;;;;;;25.72;24.74;99360.91;103866;278;38142;-77
2023/04/24 11:55:59;;;;;;;7.50;5.50;;;;;;;25.48;24.95;99360.86;104023;276;39759;-77
2023/04/24 11:58:39;;;;;;;6.00;5.10;;;;;;;25.28;25.35;99360.70;104056;276;38236;-76
2023/04/24 12:01:14;;;;;;;8.00;5.30;;;;;;;24.95;25.43;99363.66;104061;276;39527;-76
2023/04/24 12:03:52;;;;;;;7.20;5.20;;;;;;;24.65;25.95;99360.31;104035;276;39452;-76
2023/04/24 12:06:26;;;;;;;7.60;5.20;;;;;;;24.38;26.00;99349.50;104039;276;38492;-76
2023/04/24 12:09:01;;;;;;;8.60;5.40;;;;;;;24.12;26.17;99347.30;104069;276;38438;-78
2023/04/24 12:11:35;;;;;;;7.90;5.20;;;;;;;23.91;26.28;99345.96;104034;276;38368;-78